Погода Ложкинона неделю

Смоленская область, Россия

24 - 30 мая
  • 24мая
    Сегодня
    +6°
    +21°
    Ясно и безоблачно
    ВремяПогодаТемператураВлажностьДавлениеВетер, м/сВероятность осадков
    00:00Ясно и безоблачно+11°C58 %751 мм2.9 м/с2 %
    03:00Ясно и безоблачно+9°C61 %752 мм2.7 м/с2 %
    06:00Ясно и безоблачно+10°C63 %753 мм2.7 м/с2 %
    09:00Ясно и безоблачно+16°C47 %754 мм2.7 м/с2 %
    12:00Ясно и безоблачно+19°C32 %754 мм4.5 м/с2 %
    15:00Ясно и безоблачно+21°C31 %753 мм4.2 м/с2 %
    18:00Ясно и безоблачно+20°C35 %752 мм3.8 м/с2 %
    21:00Ясно и безоблачно+15°C52 %752 мм2.8 м/с2 %
  • 25мая
    Суббота
    +8°
    +24°
    Ясно и безоблачно
    ВремяПогодаТемператураВлажностьДавлениеВетер, м/сВероятность осадков
    00:00Ясно и безоблачно+10°C58 %752 мм2.6 м/с2 %
    03:00Ясно и безоблачно+7°C67 %752 мм2.7 м/с2 %
    06:00Ясно и безоблачно+8°C68 %752 мм2.5 м/с2 %
    09:00Ясно и безоблачно+16°C51 %752 мм1.8 м/с2 %
    12:00Ясно и безоблачно+21°C37 %751 мм2.2 м/с2 %
    15:00Ясно и безоблачно+23°C32 %750 мм2.6 м/с2 %
    18:00Ясно и безоблачно+23°C34 %749 мм2.3 м/с2 %
    21:00Ясно и безоблачно+18°C66 %748 мм2.1 м/с2 %
  • 26мая
    Воскресенье
    +11°
    +26°
    Небольшая облачность
    ВремяПогодаТемператураВлажностьДавлениеВетер, м/сВероятность осадков
    00:00Ясно и безоблачно+12°C65 %748 мм2.6 м/с2 %
    03:00Ясно и безоблачно+9°C82 %748 мм1.3 м/с2 %
    06:00Ясно и безоблачно+10°C80 %748 мм1.9 м/с2 %
    09:00Ясно и безоблачно+20°C53 %749 мм1.0 м/с2 %
    12:00Небольшая облачность+24°C35 %749 мм1.9 м/с2 %
    15:00Небольшая облачность+25°C31 %748 мм1.7 м/с6 %
    18:00Небольшая облачность+22°C47 %748 мм4.3 м/с19 %
    21:00Ясно и безоблачно+19°C67 %748 мм2.7 м/с4 %
  • 27мая
    Понедельник
    +11°
    +25°
    Небольшая облачность
    ВремяПогодаТемператураВлажностьДавлениеВетер, м/сВероятность осадков
    00:00Облачно с прояснениями+15°C88 %748 мм2.5 м/с2 %
    03:00Ясно и безоблачно+13°C94 %749 мм2.8 м/с2 %
    06:00Ясно и безоблачно+12°C83 %749 мм2.5 м/с2 %
    09:00Ясно и безоблачно+19°C55 %750 мм2.2 м/с2 %
    12:00Практически безоблачно+22°C45 %750 мм2.7 м/с9 %
    15:00Небольшая облачность+24°C35 %749 мм2.0 м/с20 %
    18:00Практически безоблачно+24°C34 %748 мм2.0 м/с34 %
    21:00Небольшая облачность+20°C54 %748 мм2.7 м/с3 %
  • 28мая
    Вторник
    +11°
    +25°
    Практически безоблачно
    ВремяПогодаТемператураВлажностьДавлениеВетер, м/сВероятность осадков
    00:00Практически безоблачно+15°C71 %748 мм3.0 м/с2 %
    03:00Ясно и безоблачно+13°C83 %748 мм2.5 м/с2 %
    06:00Ясно и безоблачно+12°C81 %748 мм2.4 м/с4 %
    09:00Ясно и безоблачно+20°C58 %748 мм1.8 м/с2 %
    12:00Ясно и безоблачно+24°C42 %748 мм2.3 м/с12 %
    15:00Практически безоблачно+25°C35 %747 мм1.6 м/с18 %
    18:00Ясно и безоблачно+24°C34 %746 мм2.0 м/с22 %
    21:00Ясно и безоблачно+21°C47 %746 мм3.2 м/с4 %
Мы используем cookies
Соглашаюсь